Time;durP1;ratioP1;P1;durP2;ratioP2;P2;SDS_P1;SDS_P2;PMS_P1;PMS_P2;Temp;Humidity;BMP_temperature;BMP_pressure;BME280_temperature;BME280_humidity;BME280_pressure;Samples;Min_cycle;Max_cycle;Signal;HPM_P1;HPM_P2
2022/10/13 00:00:38;;;;;;;36.75;15.50;;;;;;;;;;5116178;27;20058;-67
2022/10/13 00:03:04;;;;;;;27.30;14.07;;;;;;;;;;5124376;27;20066;-67
2022/10/13 00:05:30;;;;;;;28.27;14.50;;;;;;;;;;5129430;27;20035;-67
2022/10/13 00:07:56;;;;;;;32.30;14.10;;;;;;;;;;5100243;27;20038;-67
2022/10/13 00:10:23;;;;;;;25.98;13.55;;;;;;;;;;5134669;27;20068;-66
2022/10/13 00:12:49;;;;;;;28.00;13.98;;;;;;;;;;5119789;27;20050;-67
2022/10/13 00:15:15;;;;;;;22.83;12.82;;;;;;;;;;5134052;27;20035;-67
2022/10/13 00:17:41;;;;;;;27.90;14.00;;;;;;;;;;5134800;27;20487;-66
2022/10/13 00:20:08;;;;;;;26.55;13.63;;;;;;;;;;5115572;27;20039;-66
2022/10/13 00:22:34;;;;;;;25.85;13.40;;;;;;;;;;5098706;27;20122;-75
2022/10/13 00:25:00;;;;;;;25.67;14.65;;;;;;;;;;5133796;27;20049;-75
2022/10/13 00:27:27;;;;;;;24.98;12.95;;;;;;;;;;5135504;27;20483;-75
2022/10/13 00:29:53;;;;;;;23.40;12.43;;;;;;;;;;5134532;27;20104;-75
2022/10/13 00:32:19;;;;;;;27.77;12.75;;;;;;;;;;5116589;27;20537;-75
2022/10/13 00:34:45;;;;;;;26.17;12.73;;;;;;;;;;5133287;27;20039;-76
2022/10/13 00:37:11;;;;;;;23.15;11.40;;;;;;;;;;5115382;27;20069;-75
2022/10/13 00:39:37;;;;;;;27.15;13.65;;;;;;;;;;5127818;27;20038;-75
2022/10/13 00:42:04;;;;;;;26.40;13.05;;;;;;;;;;5100574;27;20038;-75
2022/10/13 00:44:49;;;;;;;28.30;13.93;;;;;;;;;;5097672;27;20039;-75
2022/10/13 00:47:15;;;;;;;28.48;14.00;;;;;;;;;;5083621;27;20039;-75
2022/10/13 00:49:41;;;;;;;32.92;13.57;;;;;;;;;;5145458;27;20027;-76
2022/10/13 00:52:07;;;;;;;26.60;13.27;;;;;;;;;;5135341;27;20537;-75
2022/10/13 00:54:33;;;;;;;25.50;13.73;;;;;;;;;;5123683;27;20047;-75
2022/10/13 00:57:00;;;;;;;24.65;12.50;;;;;;;;;;5114932;27;20503;-75
2022/10/13 00:59:28;;;;;;;24.40;12.52;;;;;;;;;;5134245;27;20037;-75
2022/10/13 01:01:54;;;;;;;26.02;13.20;;;;;;;;;;5133262;27;20039;-75
2022/10/13 01:04:22;;;;;;;31.75;13.38;;;;;;;;;;5120677;27;20050;-67
2022/10/13 01:06:49;;;;;;;27.83;13.35;;;;;;;;;;5114919;27;20043;-67
2022/10/13 01:09:15;;;;;;;22.55;12.35;;;;;;;;;;5133354;27;20035;-67
2022/10/13 01:11:59;;;;;;;27.05;12.93;;;;;;;;;;5118633;28;20046;-66
2022/10/13 01:14:26;;;;;;;26.73;13.30;;;;;;;;;;5133851;27;20039;-66
2022/10/13 01:17:10;;;;;;;22.38;12.80;;;;;;;;;;5125541;28;20043;-67
2022/10/13 01:19:55;;;;;;;26.42;13.40;;;;;;;;;;5109773;28;20100;-66
2022/10/13 01:22:36;;;;;;;27.58;13.50;;;;;;;;;;5130365;27;20038;-67
2022/10/13 01:25:02;;;;;;;24.42;13.07;;;;;;;;;;5120402;27;20042;-67
2022/10/13 01:27:34;;;;;;;27.35;13.48;;;;;;;;;;5115681;28;20543;-67
2022/10/13 01:30:14;;;;;;;25.75;13.85;;;;;;;;;;5137367;27;20042;-76
2022/10/13 01:32:59;;;;;;;27.35;13.73;;;;;;;;;;5117977;27;20065;-75
2022/10/13 01:35:28;;;;;;;25.90;14.15;;;;;;;;;;5119805;27;20042;-67
2022/10/13 01:37:54;;;;;;;30.00;13.88;;;;;;;;;;5136818;27;20035;-66
2022/10/13 01:40:20;;;;;;;28.08;13.80;;;;;;;;;;5138117;27;20534;-75
2022/10/13 01:43:25;;;;;;;26.27;13.60;;;;;;;;;;5136468;27;20042;-75
2022/10/13 01:45:56;;;;;;;32.13;14.23;;;;;;;;;;5028649;28;20124;-75
2022/10/13 01:48:23;;;;;;;27.70;14.10;;;;;;;;;;5034546;28;20474;-75
2022/10/13 01:50:50;;;;;;;25.80;13.48;;;;;;;;;;5099903;27;20471;-75
2022/10/13 01:53:17;;;;;;;21.52;12.20;;;;;;;;;;5137755;27;20055;-75
2022/10/13 01:55:50;;;;;;;32.60;13.93;;;;;;;;;;5137847;27;20039;-66
2022/10/13 01:58:17;;;;;;;27.00;13.63;;;;;;;;;;5119735;27;20035;-77
2022/10/13 02:00:49;;;;;;;30.67;15.02;;;;;;;;;;5137108;27;20499;-75
2022/10/13 02:03:31;;;;;;;27.33;14.20;;;;;;;;;;5136293;27;20043;-75
2022/10/13 02:06:02;;;;;;;25.33;13.70;;;;;;;;;;5135242;27;20118;-75
2022/10/13 02:08:41;;;;;;;26.80;13.57;;;;;;;;;;5118839;27;20084;-75
2022/10/13 02:11:15;;;;;;;29.52;14.05;;;;;;;;;;5119837;27;20050;-75
2022/10/13 02:13:50;;;;;;;33.03;13.93;;;;;;;;;;5130825;27;20039;-75
2022/10/13 02:16:19;;;;;;;22.70;10.35;;;;;;;;;;5128504;27;20072;-75
2022/10/13 02:18:45;;;;;;;26.17;13.25;;;;;;;;;;5148539;27;20039;-75
2022/10/13 02:21:11;;;;;;;26.70;13.32;;;;;;;;;;5146873;27;20038;-74
2022/10/13 02:23:38;;;;;;;26.52;13.43;;;;;;;;;;5140206;27;20039;-75
2022/10/13 02:26:04;;;;;;;31.10;13.52;;;;;;;;;;5136518;27;20035;-74
2022/10/13 02:28:30;;;;;;;26.67;14.48;;;;;;;;;;5119492;27;20480;-75
2022/10/13 02:30:56;;;;;;;30.05;14.82;;;;;;;;;;5134885;27;20041;-67
2022/10/13 02:33:22;;;;;;;25.95;14.77;;;;;;;;;;5125243;27;20043;-67
2022/10/13 02:35:49;;;;;;;25.45;14.40;;;;;;;;;;5134403;27;20495;-74
2022/10/13 02:38:15;;;;;;;28.73;13.75;;;;;;;;;;5119045;27;20053;-75
2022/10/13 02:40:41;;;;;;;29.27;15.05;;;;;;;;;;5135668;27;20082;-75
2022/10/13 02:43:07;;;;;;;22.95;12.82;;;;;;;;;;5105697;28;20453;-75
2022/10/13 02:45:33;;;;;;;26.73;15.30;;;;;;;;;;5130276;27;20051;-75
2022/10/13 02:47:59;;;;;;;26.65;13.80;;;;;;;;;;5135658;27;20041;-75
2022/10/13 02:50:25;;;;;;;29.23;15.88;;;;;;;;;;5149195;27;20066;-67
2022/10/13 02:52:51;;;;;;;28.13;15.68;;;;;;;;;;5127132;27;20047;-68
2022/10/13 02:55:17;;;;;;;26.73;15.00;;;;;;;;;;5139163;27;20038;-67
2022/10/13 02:57:43;;;;;;;31.67;15.27;;;;;;;;;;5116714;27;20038;-67
2022/10/13 03:00:10;;;;;;;30.85;16.13;;;;;;;;;;5138612;27;20039;-67
2022/10/13 03:02:36;;;;;;;27.92;15.55;;;;;;;;;;5118150;27;20043;-67
2022/10/13 03:05:02;;;;;;;34.47;15.95;;;;;;;;;;5120322;27;20046;-68
2022/10/13 03:07:28;;;;;;;28.60;15.05;;;;;;;;;;5135620;27;20062;-67
2022/10/13 03:09:54;;;;;;;27.52;15.48;;;;;;;;;;5135601;27;20073;-75
2022/10/13 03:12:20;;;;;;;31.02;15.98;;;;;;;;;;5116907;27;20039;-75
2022/10/13 03:14:46;;;;;;;31.63;15.75;;;;;;;;;;5117360;27;20061;-75
2022/10/13 03:17:12;;;;;;;30.48;16.77;;;;;;;;;;5116882;27;20385;-75
2022/10/13 03:19:38;;;;;;;28.98;16.08;;;;;;;;;;5116778;27;20043;-75
2022/10/13 03:22:04;;;;;;;30.73;16.58;;;;;;;;;;5135837;27;20126;-75
2022/10/13 03:24:30;;;;;;;28.92;16.33;;;;;;;;;;5137390;27;20036;-67
2022/10/13 03:26:57;;;;;;;33.03;17.02;;;;;;;;;;5116481;27;20441;-74
2022/10/13 03:29:23;;;;;;;32.55;17.20;;;;;;;;;;5116479;27;20049;-75
2022/10/13 03:31:49;;;;;;;35.58;16.38;;;;;;;;;;5135914;27;20407;-67
2022/10/13 03:34:16;;;;;;;32.63;17.33;;;;;;;;;;5138063;27;20034;-67
2022/10/13 03:36:42;;;;;;;33.55;17.90;;;;;;;;;;5143322;27;20035;-66
2022/10/13 03:39:08;;;;;;;32.85;17.65;;;;;;;;;;5134723;27;20595;-75
2022/10/13 03:41:35;;;;;;;30.75;16.38;;;;;;;;;;5122697;27;20030;-75
2022/10/13 03:44:01;;;;;;;34.40;17.60;;;;;;;;;;5138492;27;20046;-74
2022/10/13 03:46:27;;;;;;;34.47;16.92;;;;;;;;;;5135103;27;20456;-74
2022/10/13 03:48:54;;;;;;;34.22;18.05;;;;;;;;;;5099194;27;20510;-74
2022/10/13 03:51:21;;;;;;;30.70;17.15;;;;;;;;;;5114291;27;20090;-66
2022/10/13 03:53:47;;;;;;;34.92;18.25;;;;;;;;;;5123081;27;20062;-75
2022/10/13 03:56:15;;;;;;;37.28;18.38;;;;;;;;;;5116860;27;20525;-75
2022/10/13 03:58:41;;;;;;;36.78;18.83;;;;;;;;;;5134454;27;20046;-75
2022/10/13 04:01:07;;;;;;;34.15;18.38;;;;;;;;;;5133095;27;20049;-66
2022/10/13 04:03:34;;;;;;;34.47;18.98;;;;;;;;;;5135047;27;20035;-67
2022/10/13 04:06:01;;;;;;;31.90;16.75;;;;;;;;;;5115609;27;20121;-66
2022/10/13 04:08:28;;;;;;;34.95;19.58;;;;;;;;;;5116047;27;20499;-67
2022/10/13 04:11:07;;;;;;;35.40;20.02;;;;;;;;;;5134030;27;20039;-67
2022/10/13 04:13:33;;;;;;;35.30;19.42;;;;;;;;;;5117062;27;20043;-67
2022/10/13 04:16:03;;;;;;;33.97;18.20;;;;;;;;;;5134201;27;20069;-67
2022/10/13 04:18:29;;;;;;;35.03;19.10;;;;;;;;;;5114243;27;20042;-67
2022/10/13 04:20:55;;;;;;;35.47;19.02;;;;;;;;;;5133145;27;20043;-67
2022/10/13 04:23:22;;;;;;;44.40;21.52;;;;;;;;;;5136283;27;20073;-67
2022/10/13 04:25:48;;;;;;;37.35;20.38;;;;;;;;;;5142012;27;20046;-68
2022/10/13 04:28:14;;;;;;;45.38;22.13;;;;;;;;;;5137771;27;20101;-67
2022/10/13 04:30:41;;;;;;;41.17;21.33;;;;;;;;;;5133656;27;20031;-68
2022/10/13 04:33:07;;;;;;;38.72;21.17;;;;;;;;;;5132621;27;20050;-68
2022/10/13 04:35:33;;;;;;;42.47;21.83;;;;;;;;;;5142674;27;20508;-68
2022/10/13 04:37:59;;;;;;;46.67;23.55;;;;;;;;;;5132875;27;20039;-68
2022/10/13 04:40:27;;;;;;;38.42;21.58;;;;;;;;;;5133319;27;20566;-67
2022/10/13 04:42:53;;;;;;;47.72;24.20;;;;;;;;;;5115579;27;20403;-68
2022/10/13 04:45:19;;;;;;;41.85;23.85;;;;;;;;;;5115270;27;20038;-68
2022/10/13 04:47:45;;;;;;;43.97;23.92;;;;;;;;;;5114187;27;20083;-68
2022/10/13 04:50:11;;;;;;;49.15;24.17;;;;;;;;;;5132972;27;20099;-68
2022/10/13 04:52:37;;;;;;;42.38;23.88;;;;;;;;;;5132543;27;20051;-68
2022/10/13 04:55:03;;;;;;;44.67;23.42;;;;;;;;;;5114460;27;20047;-68
2022/10/13 04:57:30;;;;;;;50.13;23.33;;;;;;;;;;5131917;27;20035;-69
2022/10/13 04:59:56;;;;;;;47.30;24.42;;;;;;;;;;5132961;27;20039;-68
2022/10/13 05:02:22;;;;;;;45.58;23.52;;;;;;;;;;5096146;27;20043;-69
2022/10/13 05:04:48;;;;;;;45.25;24.75;;;;;;;;;;5133139;27;20057;-69
2022/10/13 05:07:15;;;;;;;48.75;25.13;;;;;;;;;;5110024;28;20093;-69
2022/10/13 05:09:41;;;;;;;44.33;25.05;;;;;;;;;;5123229;27;20118;-69
2022/10/13 05:12:07;;;;;;;44.03;23.63;;;;;;;;;;5122275;27;20045;-76
2022/10/13 05:14:33;;;;;;;48.53;24.55;;;;;;;;;;5097555;28;20494;-76
2022/10/13 05:17:00;;;;;;;48.28;25.23;;;;;;;;;;5123293;27;20406;-76
2022/10/13 05:19:27;;;;;;;49.08;24.55;;;;;;;;;;5133510;28;20035;-76
2022/10/13 05:21:53;;;;;;;46.90;25.10;;;;;;;;;;5133751;27;20042;-76
2022/10/13 05:24:29;;;;;;;47.00;24.42;;;;;;;;;;5097120;28;20113;-69
2022/10/13 05:26:55;;;;;;;46.92;24.23;;;;;;;;;;5133144;27;20446;-68
2022/10/13 05:29:21;;;;;;;44.13;23.23;;;;;;;;;;5128296;28;20480;-69
2022/10/13 05:31:47;;;;;;;51.28;25.65;;;;;;;;;;5114671;28;20073;-77
2022/10/13 05:34:13;;;;;;;51.20;25.00;;;;;;;;;;5115218;28;20084;-76
2022/10/13 05:36:40;;;;;;;48.88;24.05;;;;;;;;;;5120400;27;20035;-76
2022/10/13 05:39:07;;;;;;;44.67;24.55;;;;;;;;;;5115008;28;20039;-76
2022/10/13 05:41:33;;;;;;;45.85;24.08;;;;;;;;;;5133107;28;20043;-76
2022/10/13 05:44:09;;;;;;;47.30;24.40;;;;;;;;;;5115590;28;20578;-76
2022/10/13 05:46:35;;;;;;;47.20;24.30;;;;;;;;;;5097629;28;20126;-77
2022/10/13 05:49:01;;;;;;;49.72;24.60;;;;;;;;;;5145439;27;20043;-77
2022/10/13 05:51:30;;;;;;;46.65;24.30;;;;;;;;;;5097366;28;20047;-76
2022/10/13 05:54:01;;;;;;;52.95;25.83;;;;;;;;;;5141541;27;20096;-68
2022/10/13 05:56:31;;;;;;;44.88;22.85;;;;;;;;;;5137739;27;20042;-68
2022/10/13 05:59:00;;;;;;;43.15;23.40;;;;;;;;;;5135514;27;20031;-69
2022/10/13 06:01:27;;;;;;;42.03;23.02;;;;;;;;;;5132012;28;20483;-69
2022/10/13 06:03:55;;;;;;;49.00;24.30;;;;;;;;;;5132178;27;20038;-69
2022/10/13 06:06:22;;;;;;;48.28;24.00;;;;;;;;;;5131677;28;20064;-68
2022/10/13 06:08:49;;;;;;;50.10;24.35;;;;;;;;;;5133842;27;20031;-69
2022/10/13 06:11:15;;;;;;;44.50;23.77;;;;;;;;;;5136006;27;20054;-69
2022/10/13 06:13:41;;;;;;;45.78;23.85;;;;;;;;;;5137372;27;20472;-76
2022/10/13 06:16:08;;;;;;;53.95;23.77;;;;;;;;;;5138457;27;20484;-77
2022/10/13 06:18:34;;;;;;;45.53;23.83;;;;;;;;;;5134075;27;20083;-76
2022/10/13 06:21:00;;;;;;;44.72;24.08;;;;;;;;;;5119267;27;20035;-76
2022/10/13 06:23:26;;;;;;;45.25;23.13;;;;;;;;;;5135978;27;20395;-76
2022/10/13 06:25:52;;;;;;;45.53;23.02;;;;;;;;;;5137310;27;20039;-69
2022/10/13 06:28:19;;;;;;;49.22;23.92;;;;;;;;;;5117204;27;20046;-69
2022/10/13 06:30:52;;;;;;;44.15;23.45;;;;;;;;;;5125488;27;20383;-69
2022/10/13 06:33:19;;;;;;;45.38;24.75;;;;;;;;;;5135597;27;20495;-69
2022/10/13 06:35:45;;;;;;;47.88;23.92;;;;;;;;;;5140261;27;20031;-69
2022/10/13 06:38:11;;;;;;;48.45;24.67;;;;;;;;;;5146278;27;20480;-69
2022/10/13 06:40:38;;;;;;;51.05;24.58;;;;;;;;;;5141666;27;20031;-69
2022/10/13 06:43:04;;;;;;;44.15;24.27;;;;;;;;;;5117306;27;20046;-69
2022/10/13 06:45:30;;;;;;;48.97;24.52;;;;;;;;;;5116671;27;20096;-69
2022/10/13 06:47:56;;;;;;;43.92;23.35;;;;;;;;;;5137196;27;20039;-69
2022/10/13 06:50:22;;;;;;;46.58;25.00;;;;;;;;;;5107421;27;20047;-69
2022/10/13 06:52:48;;;;;;;46.03;24.50;;;;;;;;;;5133393;27;20507;-69
2022/10/13 06:55:15;;;;;;;45.75;25.20;;;;;;;;;;5135184;27;20372;-70
2022/10/13 06:57:41;;;;;;;42.90;24.80;;;;;;;;;;5118434;27;20096;-69
2022/10/13 07:00:08;;;;;;;42.75;24.45;;;;;;;;;;5117017;27;20039;-69
2022/10/13 07:02:34;;;;;;;46.70;25.67;;;;;;;;;;5117934;27;20039;-69
2022/10/13 07:05:00;;;;;;;48.63;24.65;;;;;;;;;;5134985;27;20039;-69
2022/10/13 07:07:26;;;;;;;50.63;25.63;;;;;;;;;;5117910;27;20031;-74
2022/10/13 07:09:52;;;;;;;44.97;24.23;;;;;;;;;;5135241;27;20031;-69
2022/10/13 07:12:19;;;;;;;45.80;24.95;;;;;;;;;;5117617;27;20067;-69
2022/10/13 07:14:45;;;;;;;41.63;23.65;;;;;;;;;;5135223;27;20118;-69
2022/10/13 07:17:11;;;;;;;48.80;25.80;;;;;;;;;;5135179;27;20031;-69
2022/10/13 07:19:38;;;;;;;45.97;24.50;;;;;;;;;;5102954;27;20507;-76
2022/10/13 07:22:04;;;;;;;42.80;23.35;;;;;;;;;;5116823;27;20070;-75
2022/10/13 07:24:30;;;;;;;45.25;24.48;;;;;;;;;;5134686;27;20051;-76
2022/10/13 07:26:56;;;;;;;43.45;22.20;;;;;;;;;;5117842;27;20458;-76
2022/10/13 07:29:22;;;;;;;45.75;26.40;;;;;;;;;;5118725;27;20038;-76
2022/10/13 07:31:48;;;;;;;44.42;24.88;;;;;;;;;;5102892;27;20127;-76
2022/10/13 07:34:14;;;;;;;50.58;28.27;;;;;;;;;;5113847;28;20038;-75
2022/10/13 07:36:41;;;;;;;42.42;23.38;;;;;;;;;;5106172;27;20050;-75
2022/10/13 07:39:08;;;;;;;43.17;25.35;;;;;;;;;;5116245;27;20091;-75
2022/10/13 07:41:34;;;;;;;48.95;32.55;;;;;;;;;;5099051;27;20039;-69
2022/10/13 07:44:00;;;;;;;47.60;24.02;;;;;;;;;;5120169;27;20038;-75
2022/10/13 07:46:26;;;;;;;48.58;25.98;;;;;;;;;;5134441;27;20043;-75
2022/10/13 07:48:53;;;;;;;44.28;24.73;;;;;;;;;;5116264;27;20095;-76
2022/10/13 07:51:20;;;;;;;47.53;24.65;;;;;;;;;;5134588;27;20039;-76
2022/10/13 07:53:46;;;;;;;42.13;24.27;;;;;;;;;;5115491;27;20503;-69
2022/10/13 07:56:13;;;;;;;43.75;24.63;;;;;;;;;;5134245;27;20396;-69
2022/10/13 07:58:40;;;;;;;39.60;22.77;;;;;;;;;;5134067;27;20452;-69
2022/10/13 08:01:06;;;;;;;46.97;28.20;;;;;;;;;;5117055;27;20027;-69
2022/10/13 08:03:33;;;;;;;39.97;22.95;;;;;;;;;;5115717;27;20079;-69
2022/10/13 08:05:59;;;;;;;40.17;24.85;;;;;;;;;;5094279;28;20117;-69
2022/10/13 08:08:25;;;;;;;42.58;23.92;;;;;;;;;;5105114;27;20039;-69
2022/10/13 08:10:51;;;;;;;42.90;25.38;;;;;;;;;;5134475;27;20039;-69
2022/10/13 08:13:18;;;;;;;44.35;24.05;;;;;;;;;;5130280;27;20035;-69
2022/10/13 08:15:45;;;;;;;38.40;22.58;;;;;;;;;;5133265;27;20112;-69
2022/10/13 08:18:12;;;;;;;36.85;22.48;;;;;;;;;;5115177;27;20035;-70
2022/10/13 08:20:39;;;;;;;44.63;24.15;;;;;;;;;;5142527;27;20437;-70
2022/10/13 08:23:05;;;;;;;46.95;23.00;;;;;;;;;;5135831;27;20478;-69
2022/10/13 08:25:35;;;;;;;41.35;23.33;;;;;;;;;;5114980;27;20382;-70
2022/10/13 08:28:01;;;;;;;40.10;22.65;;;;;;;;;;5098358;27;20096;-69
2022/10/13 08:30:27;;;;;;;41.65;24.13;;;;;;;;;;5136191;27;20031;-69
2022/10/13 08:32:53;;;;;;;43.60;24.38;;;;;;;;;;5120433;27;20053;-70
2022/10/13 08:35:19;;;;;;;38.72;23.10;;;;;;;;;;5133664;27;20032;-70
2022/10/13 08:37:45;;;;;;;41.88;23.10;;;;;;;;;;5114934;27;20065;-69
2022/10/13 08:40:15;;;;;;;41.10;23.65;;;;;;;;;;5133470;27;20042;-78
2022/10/13 08:42:43;;;;;;;34.53;22.33;;;;;;;;;;5118020;27;20039;-77
2022/10/13 08:45:15;;;;;;;41.00;23.25;;;;;;;;;;5118811;27;20046;-73
2022/10/13 08:47:55;;;;;;;42.92;23.58;;;;;;;;;;5132830;27;20039;-70
2022/10/13 08:50:22;;;;;;;39.55;24.05;;;;;;;;;;5100702;28;20040;-70
2022/10/13 08:53:00;;;;;;;42.13;23.88;;;;;;;;;;5115492;27;20050;-71
2022/10/13 08:55:31;;;;;;;37.58;21.90;;;;;;;;;;5116338;27;20396;-75
2022/10/13 08:57:58;;;;;;;33.58;21.58;;;;;;;;;;5101184;27;20038;-75
2022/10/13 09:00:24;;;;;;;34.83;21.13;;;;;;;;;;5098031;27;20043;-75
2022/10/13 09:02:50;;;;;;;47.38;28.90;;;;;;;;;;5114567;27;20035;-75
2022/10/13 09:05:30;;;;;;;34.10;21.63;;;;;;;;;;5115649;27;20038;-74
2022/10/13 09:07:57;;;;;;;34.38;22.92;;;;;;;;;;5120021;27;20518;-74
2022/10/13 09:10:23;;;;;;;34.58;21.27;;;;;;;;;;5107321;28;20391;-74
2022/10/13 09:12:50;;;;;;;34.90;22.60;;;;;;;;;;5114119;28;20035;-74
2022/10/13 09:15:17;;;;;;;32.75;20.50;;;;;;;;;;5120693;28;20448;-74
2022/10/13 09:17:43;;;;;;;34.08;21.50;;;;;;;;;;5109382;28;20035;-75
2022/10/13 09:20:27;;;;;;;32.33;21.05;;;;;;;;;;5101690;27;20035;-75
2022/10/13 09:23:02;;;;;;;30.85;21.10;;;;;;;;;;5124604;28;20284;-75
2022/10/13 09:25:28;;;;;;;36.72;22.23;;;;;;;;;;5105435;27;20122;-75
2022/10/13 09:27:56;;;;;;;32.28;19.77;;;;;;;;;;5113638;28;20039;-78
2022/10/13 09:30:42;;;;;;;39.22;23.20;;;;;;;;;;5132446;28;20043;-76
2022/10/13 09:33:11;;;;;;;37.17;22.60;;;;;;;;;;5098729;28;20046;-76
2022/10/13 09:35:39;;;;;;;37.45;23.27;;;;;;;;;;5132908;27;20075;-76
2022/10/13 09:38:16;;;;;;;38.15;22.85;;;;;;;;;;5132796;28;20038;-77
2022/10/13 09:40:43;;;;;;;38.03;24.65;;;;;;;;;;5111510;28;20068;-77
2022/10/13 09:43:32;;;;;;;39.47;24.77;;;;;;;;;;5136743;27;20089;-75
2022/10/13 09:45:59;;;;;;;42.97;24.33;;;;;;;;;;5145312;27;20034;-77
2022/10/13 09:48:27;;;;;;;41.97;25.63;;;;;;;;;;5137127;27;20114;-70
2022/10/13 09:50:54;;;;;;;42.03;24.83;;;;;;;;;;5115632;27;20069;-76
2022/10/13 09:53:23;;;;;;;50.28;26.02;;;;;;;;;;5114189;27;20051;-76
2022/10/13 09:55:49;;;;;;;40.15;24.83;;;;;;;;;;5118136;27;20036;-75
2022/10/13 09:58:19;;;;;;;37.28;24.60;;;;;;;;;;5121170;27;20034;-78
2022/10/13 10:00:45;;;;;;;44.05;24.55;;;;;;;;;;5117821;27;20169;-76
2022/10/13 10:03:27;;;;;;;41.20;24.77;;;;;;;;;;5138022;27;20027;-76
2022/10/13 10:05:57;;;;;;;42.50;24.45;;;;;;;;;;5118126;27;20050;-77
2022/10/13 10:08:23;;;;;;;39.85;24.17;;;;;;;;;;5118273;27;20047;-76
2022/10/13 10:10:49;;;;;;;44.45;24.88;;;;;;;;;;5118889;27;20043;-76
2022/10/13 10:13:15;;;;;;;39.53;24.52;;;;;;;;;;5105459;27;20035;-76
2022/10/13 10:15:50;;;;;;;39.80;23.48;;;;;;;;;;5146232;27;20034;-72
2022/10/13 10:18:19;;;;;;;40.42;23.13;;;;;;;;;;5136398;27;20031;-71
2022/10/13 10:21:04;;;;;;;38.65;21.95;;;;;;;;;;5136066;27;20067;-77
2022/10/13 10:23:39;;;;;;;39.80;22.88;;;;;;;;;;5124550;27;20046;-77
2022/10/13 10:26:10;;;;;;;37.03;22.65;;;;;;;;;;5118561;27;20087;-76
2022/10/13 10:28:55;;;;;;;31.45;19.50;;;;;;;;;;5118976;27;20046;-74
2022/10/13 10:31:21;;;;;;;37.75;23.08;;;;;;;;;;5101056;27;20039;-77
2022/10/13 10:33:59;;;;;;;40.03;22.83;;;;;;;;;;5135727;27;20039;-77
2022/10/13 10:36:45;;;;;;;38.50;22.27;;;;;;;;;;5111628;27;20036;-76
2022/10/13 10:39:12;;;;;;;;;;;;;;;;;;5094769;27;20043;-71
2022/10/13 10:41:38;;;;;;;;;;;;;;;;;;5118049;27;19919;-70
2022/10/13 10:44:08;;;;;;;41.63;23.70;;;;;;;;;;5117001;27;19922;-79
2022/10/13 10:46:36;;;;;;;42.17;24.95;;;;;;;;;;5118642;27;20070;-77
2022/10/13 10:49:04;;;;;;;44.63;24.77;;;;;;;;;;5117956;27;20091;-78
2022/10/13 10:51:31;;;;;;;42.08;24.63;;;;;;;;;;5117357;27;20057;-77
2022/10/13 10:53:57;;;;;;;51.40;26.00;;;;;;;;;;5116696;27;20074;-77
2022/10/13 10:56:33;;;;;;;41.03;24.40;;;;;;;;;;5116099;27;20177;-78
2022/10/13 10:59:07;;;;;;;41.33;24.38;;;;;;;;;;5093554;27;20500;-75
2022/10/13 11:01:42;;;;;;;37.47;22.60;;;;;;;;;;5146879;27;20471;-75
2022/10/13 11:04:24;;;;;;;39.78;23.40;;;;;;;;;;5135878;27;20395;-74
2022/10/13 11:06:50;;;;;;;43.33;24.50;;;;;;;;;;5120845;27;20046;-74
2022/10/13 11:09:36;;;;;;;37.78;23.13;;;;;;;;;;5117831;27;20180;-75
2022/10/13 11:12:02;;;;;;;37.58;22.55;;;;;;;;;;5100168;27;20125;-71
2022/10/13 11:14:29;;;;;;;36.97;23.48;;;;;;;;;;5087751;27;20562;-71
2022/10/13 11:16:58;;;;;;;35.13;22.52;;;;;;;;;;5136285;27;20054;-70
2022/10/13 11:19:28;;;;;;;31.65;20.92;;;;;;;;;;5135278;27;20039;-68
2022/10/13 11:21:55;;;;;;;33.95;22.10;;;;;;;;;;5118630;27;20112;-70
2022/10/13 11:24:47;;;;;;;36.53;22.67;;;;;;;;;;5101852;27;20569;-71
2022/10/13 11:27:13;;;;;;;31.85;21.95;;;;;;;;;;5082957;28;20115;-71
2022/10/13 11:29:46;;;;;;;34.17;22.05;;;;;;;;;;5104594;28;20043;-71
2022/10/13 11:32:29;;;;;;;37.10;22.05;;;;;;;;;;5095443;28;20048;-71
2022/10/13 11:35:05;;;;;;;30.92;21.00;;;;;;;;;;5095381;28;20051;-72
2022/10/13 11:37:34;;;;;;;34.38;21.65;;;;;;;;;;5124845;27;20391;-71
2022/10/13 11:40:19;;;;;;;35.50;23.30;;;;;;;;;;5110628;27;20043;-71
2022/10/13 11:42:48;;;;;;;37.22;22.70;;;;;;;;;;5098472;27;20039;-75
2022/10/13 11:45:30;;;;;;;36.05;21.90;;;;;;;;;;5133715;27;20031;-75
2022/10/13 11:47:59;;;;;;;37.30;23.08;;;;;;;;;;5127518;27;20394;-75
2022/10/13 11:50:30;;;;;;;39.67;23.08;;;;;;;;;;5115452;27;20114;-75
2022/10/13 11:53:06;;;;;;;37.92;23.52;;;;;;;;;;5111840;27;20089;-75
2022/10/13 11:55:44;;;;;;;36.22;23.60;;;;;;;;;;5111647;28;20053;-75
2022/10/13 11:58:23;;;;;;;36.03;22.48;;;;;;;;;;5113232;27;20036;-75
2022/10/13 12:01:12;;;;;;;39.33;23.60;;;;;;;;;;5118190;27;20126;-75
2022/10/13 12:03:40;;;;;;;37.42;23.38;;;;;;;;;;5112138;27;20039;-75
2022/10/13 12:06:31;;;;;;;31.88;21.65;;;;;;;;;;5113058;27;20043;-75
2022/10/13 12:08:58;;;;;;;35.47;21.95;;;;;;;;;;5114307;27;20046;-75
2022/10/13 12:11:26;;;;;;;35.85;23.17;;;;;;;;;;5111884;28;20119;-75
2022/10/13 12:13:52;;;;;;;39.78;23.05;;;;;;;;;;5113312;28;20036;-75
2022/10/13 12:16:19;;;;;;;37.47;22.75;;;;;;;;;;5112987;28;20043;-75
2022/10/13 12:18:45;;;;;;;38.13;23.88;;;;;;;;;;5113593;28;20031;-75
2022/10/13 12:21:13;;;;;;;40.28;22.80;;;;;;;;;;5119373;27;20067;-75
2022/10/13 12:23:40;;;;;;;36.00;23.30;;;;;;;;;;5095219;28;20043;-71
2022/10/13 12:26:06;;;;;;;38.65;22.73;;;;;;;;;;5112716;28;20054;-71
2022/10/13 12:28:48;;;;;;;39.75;23.05;;;;;;;;;;5094652;28;20074;-72
2022/10/13 12:31:19;;;;;;;28.05;19.02;;;;;;;;;;5115285;27;20046;-74
2022/10/13 12:33:51;;;;;;;34.97;22.48;;;;;;;;;;5110226;28;20082;-74
2022/10/13 12:36:18;;;;;;;33.45;22.17;;;;;;;;;;5110553;28;20069;-72
2022/10/13 12:38:51;;;;;;;34.30;22.70;;;;;;;;;;5088861;28;20512;-74
2022/10/13 12:41:19;;;;;;;31.92;20.60;;;;;;;;;;5099923;27;20035;-76
2022/10/13 12:43:45;;;;;;;31.88;20.80;;;;;;;;;;5079064;28;20048;-71
2022/10/13 12:46:11;;;;;;;33.47;21.50;;;;;;;;;;5102750;27;20044;-71
2022/10/13 12:48:37;;;;;;;33.67;21.25;;;;;;;;;;5104003;28;20553;-71
2022/10/13 12:51:08;;;;;;;32.33;21.63;;;;;;;;;;5084234;27;20064;-75
2022/10/13 12:53:37;;;;;;;26.10;18.05;;;;;;;;;;5102011;27;20135;-71
2022/10/13 12:56:04;;;;;;;30.30;20.10;;;;;;;;;;5098131;28;20442;-71
2022/10/13 12:58:32;;;;;;;33.80;19.05;;;;;;;;;;5097105;27;20104;-71
2022/10/13 13:01:02;;;;;;;26.08;18.55;;;;;;;;;;5090900;28;20028;-71
2022/10/13 13:03:29;;;;;;;28.90;18.88;;;;;;;;;;5099279;27;20043;-71
2022/10/13 13:06:07;;;;;;;27.50;19.27;;;;;;;;;;5095661;27;20081;-71
2022/10/13 13:08:33;;;;;;;30.20;18.55;;;;;;;;;;5091052;28;20031;-71
2022/10/13 13:11:05;;;;;;;29.98;18.52;;;;;;;;;;5090894;28;20044;-71
2022/10/13 13:13:32;;;;;;;29.85;18.70;;;;;;;;;;5090956;28;20052;-71
2022/10/13 13:16:15;;;;;;;30.67;19.23;;;;;;;;;;5107243;27;20039;-73
2022/10/13 13:18:48;;;;;;;28.73;19.23;;;;;;;;;;5097757;28;20488;-71
2022/10/13 13:21:15;;;;;;;31.80;19.95;;;;;;;;;;5094048;28;20043;-71
2022/10/13 13:23:44;;;;;;;29.90;19.45;;;;;;;;;;5112620;28;20415;-71
2022/10/13 13:26:18;;;;;;;32.08;19.67;;;;;;;;;;5111247;28;20419;-71
2022/10/13 13:28:47;;;;;;;31.58;19.50;;;;;;;;;;5088099;28;20096;-71
2022/10/13 13:31:15;;;;;;;27.67;18.02;;;;;;;;;;5090382;28;20044;-70
2022/10/13 13:33:41;;;;;;;30.02;18.60;;;;;;;;;;5092242;28;20513;-73
2022/10/13 13:36:15;;;;;;;32.72;20.15;;;;;;;;;;5099014;28;20088;-71
2022/10/13 13:38:41;;;;;;;28.92;19.50;;;;;;;;;;5105247;28;20036;-71
2022/10/13 13:41:08;;;;;;;28.17;18.25;;;;;;;;;;5109928;28;20039;-71
2022/10/13 13:43:34;;;;;;;32.05;19.10;;;;;;;;;;5096730;28;20044;-71
2022/10/13 13:46:00;;;;;;;26.67;17.98;;;;;;;;;;5110806;28;20138;-71
2022/10/13 13:48:26;;;;;;;27.65;18.33;;;;;;;;;;5113339;28;20043;-70
2022/10/13 13:50:53;;;;;;;25.65;18.20;;;;;;;;;;5110306;28;20046;-73
2022/10/13 13:53:19;;;;;;;26.50;17.38;;;;;;;;;;5109932;28;20135;-70
2022/10/13 13:55:46;;;;;;;26.00;17.55;;;;;;;;;;5110434;28;20040;-70
2022/10/13 13:58:12;;;;;;;27.33;17.48;;;;;;;;;;5111646;28;20078;-70
2022/10/13 14:00:38;;;;;;;25.48;16.52;;;;;;;;;;5112002;28;20052;-70
2022/10/13 14:03:05;;;;;;;24.95;15.90;;;;;;;;;;5110394;28;20105;-71
2022/10/13 14:05:31;;;;;;;28.73;16.67;;;;;;;;;;5089879;28;20040;-71
2022/10/13 14:07:57;;;;;;;27.48;16.60;;;;;;;;;;5092718;28;20046;-71
2022/10/13 14:10:24;;;;;;;23.15;16.10;;;;;;;;;;5073513;28;20481;-71
2022/10/13 14:12:51;;;;;;;26.45;15.93;;;;;;;;;;5090123;28;20032;-71
2022/10/13 14:15:17;;;;;;;21.75;14.68;;;;;;;;;;5108429;28;20386;-71
2022/10/13 14:17:43;;;;;;;24.35;16.40;;;;;;;;;;5090236;28;20047;-78
2022/10/13 14:20:10;;;;;;;23.73;15.27;;;;;;;;;;5101384;28;20102;-78
2022/10/13 14:22:39;;;;;;;21.00;13.95;;;;;;;;;;5110818;28;20392;-70
2022/10/13 14:25:06;;;;;;;21.20;14.43;;;;;;;;;;5110551;28;20039;-70
2022/10/13 14:27:33;;;;;;;21.25;14.23;;;;;;;;;;5111658;28;20084;-70